Terminal Aerodrome Forecast
Issued by NWS Brownsville, TX

Home | Current Version | Previous Version | Text Only | Print | Product List | Glossary On
Versions: 1 2 3 4 5 6 7 8 9 10 11 12 13 14 15 16 17 18 19 20 21 22 23 24 25 26
000
FTUS44 KBRO 180800 AAA
TAFBRO
TAF AMD
KBRO 180807Z 1808/1906 16006KT P6SM BKN040
      TEMPO 1810/1814 5SM BR BKN020
     FM181400 17011KT P6SM VCSH BKN020
     FM181800 18014KT P6SM VCSH OVC040
     FM190200 16007KT P6SM OVC025=

USA.gov is the U.S. government's official web portal to all federal, state and local government web resources and services.